Home > Products > Valid Products > MTR

000
SAUS41 KCAR 311657
MTRGNR
METAR KGNR 311656Z AUTO VRB04KT 24/08 A2979 RMK AO1 SLP083 T02390083





000
SAUS41 KCAR 311457
MTRGNR
METAR KGNR 311456Z AUTO VRB03KT 21/10 A2981 RMK AO1 SLP091 T02110100
57006





000
SAUS41 KCAR 311257
MTRGNR
METAR KGNR 311256Z AUTO 19/12 A2982 RMK AO1 SLP096 T01890122





000
SAUS41 KCAR 311219
MTR40B
METAR K40B 311219Z AUTO 00000KT 21/13 A2978 RMK AO1 SLP079
     T02100131 10210 20138 51007 70009





000
SAUS41 KCAR 311157
MTRGNR
METAR KGNR 311156Z AUTO 00000KT 19/13 A2983 RMK AO1 SLP097 T01890133
10194 20144 51013





000
SAUS41 KCAR 311116
MTR40B
METAR K40B 311116Z AUTO VRB04KT 19/14 A2978 RMK AO1 SLP081
     T01870140 52013





000
SAUS41 KCAR 310658
MTRGNR
METAR KGNR 310656Z AUTO 00000KT 17/13 A2978 RMK AO1 SLP082 T01720133





000
SAUS41 KCAR 310458
MTRGNR
METAR KGNR 310456Z AUTO 00000KT 16/14 A2979 RMK AO1 SLP091 T01610139
402220078 $





000
SAUS41 KCAR 310220
MTR40B
METAR K40B 310220Z AUTO VRB03KT 18/15 A2973 RMK AO1 SLP059
     T01850151 50011





000
SAUS41 KCAR 310116
MTR40B
METAR K40B 310116Z AUTO VRB04KT 21/15 A2973 RMK AO1 SLP059
     T02090150 53014





000
SAUS41 KCAR 301816
MTR40B
METAR K40B 301816Z AUTO VRB04KT 22/16 A2977 RMK AO1 SLP079
     T02210159 10228 20128 57031 60008





000
SAUS41 KCAR 301758
MTRGNR
METAR KGNR 301756Z AUTO 13005KT 18/14 A2985 RMK AO1 SLP111 T01780139
10178 20083 58024





000
SAUS41 KCAR 301358
MTRGNR
METAR KGNR 301356Z AUTO 12003KT 09/08 A2994 RMK AO1 SLP144 T00940083





000
SAUS41 KCAR 301157
MTRGNR
METAR KGNR 301156Z AUTO VRB03KT 08/07 A2995 RMK AO1 SLP148 60001
70030 T00830072 10083 20078 58015





000
SAUS41 KCAR 301119
MTR40B
METAR K40B 301119Z AUTO VRB02KT 12/11 A2992 RMK AO1 SLP136
     T01210114 55005





000
SAUS41 KCAR 301058
MTRGNR
METAR KGNR 301056Z AUTO 00000KT 08/07 A2996 RMK AO1 SLP153 T00830072





000
SAUS41 KCAR 300957
MTRGNR
METAR KGNR 300956Z AUTO 00000KT 08/07 A2998 RMK AO1 SLP158 T00830072





000
SAUS41 KCAR 300757
MTRGNR
METAR KGNR 300756Z AUTO VRB04KT 08/07 A3001 RMK AO1 SLP168 P0001
T00830072





000
SAUS41 KCAR 300320
MTR40B
METAR K40B 300320Z AUTO VRB05KT 12/11 A3004 RMK AO1 SLP175
     T01180107 58011 60015





000
SAUS41 KCAR 300058
MTRGNR
METAR KGNR 300056Z AUTO VRB04KT 11/09 A3012 RMK AO1 SLP208 T01060089





000
SAUS41 KCAR 292216
MTR40B
METAR K40B 292216Z AUTO VRB03KT 13/12 A3011 RMK AO1 SLP198
     T01300117 58016





000
SAUS41 KCAR 292120
MTR40B
METAR K40B 292120Z AUTO 12007G14KT 090V160 13/12 A3012 RMK AO1
     SLP203 T01290116 57023





000
SAUS41 KCAR 292019
MTR40B
METAR K40B 292019Z AUTO VRB05KT 13/12 A3015 RMK AO1 SLP214
     T01280117 58013





000
SAUS41 KCAR 291916
MTR40B
METAR K40B 291916Z AUTO VRB05KT 13/12 A3016 RMK AO1 SLP217
     T01280116 58014





000
SAUS41 KCAR 291758
MTRGNR
METAR KGNR 291756Z AUTO 17004KT 11/09 A3022 RMK AO1 SLP237 60021
T01110094 10111 20094 55009





000
SAUS41 KCAR 291616
MTR40B
METAR K40B 291616Z AUTO 15006G13KT 090V190 13/11 A3020 RMK AO1
     SLP232 T01280114 56012





000
SAUS41 KCAR 291416
MTR40B
METAR K40B 291416Z AUTO VRB05G11KT 13/12 A3021 RMK AO1 SLP235
     T01270119 58011 P0006





000
SAUS41 KCAR 291358
MTRGNR
METAR KGNR 291356Z AUTO VRB05KT 09/09 A3025 RMK AO1 SLP248 P0004
T00940089





000
SAUS41 KCAR 291257
MTRGNR
METAR KGNR 291256Z AUTO 12006KT 10/09 A3026 RMK AO1 SLP250 P0017
T01000089





000
SAUS41 KCAR 291157
MTRGNR
METAR KGNR 291156Z AUTO VRB03KT 11/08 A3025 RMK AO1 SLP248 P0006
60007 70007 T01060083 10139 20106 53009





000
SAUS41 KCAR 290657
MTRGNR
METAR KGNR 290656Z AUTO VRB03KT 14/09 A3021 RMK AO1 SLP229 T01390089





000
SAUS41 KCAR 290557
MTRGNR
METAR KGNR 290556Z AUTO 11004KT 14/08 A3022 RMK AO1 SLP233 T01390083
10189 20139 50005





000
SAUS41 KCAR 290116
MTR40B
METAR K40B 290116Z AUTO 00000KT 15/09 A3022 RMK AO1 SLP226
     T01510090 52013 P0000





000
SAUS41 KCAR 282357
MTRGNR
METAR KGNR 282356Z AUTO 00000KT 19/11 A3015 RMK AO1 SLP208 T01890106
10250 20189 51012





000
SAUS41 KCAR 282257
MTRGNR
METAR KGNR 282256Z AUTO 02005KT 21/11 A3014 RMK AO1 SLP206 T02060106





000
SAUS41 KCAR 281916
MTR40B
METAR K40B 281916Z AUTO VRB03G11KT 22/10 A3014 RMK AO1 SLP202
     T02160096 52005





    US Dept of Commerce
    National Oceanic and Atmospheric Administration
    National Weather Service
    1325 East West Highway
    Silver Spring, MD 20910
    Page Author: NWS Internet Services Team
Disclaimer
Information Quality
Credits
Glossary
Privacy Policy
Freedom of Information Act (FOIA)
About Us
Career Opportunities